Portada
METAR-TAF:

METAR-TAF

Aeropuertos :

Sarakhs, Irán

latitud: 36-30-04N, longitud: 061-03-54E, altitud: 288 m

Observación

El informe se hizo hace 42 minutos, a las 02:00 UTC
Viento calma
Temperatura 1°C
Humedad 93%
Presión 1024 hPa
Visibilidad 10 km o más
sin nubes por debajo de 1500 m y sin presencia de cumulonimbus.

METAR: OIMC 250200Z 00000KT CAVOK 01/M00 Q1024

Hora: 06:12 (02:42 UTC)


TAF: falta

Observaciones y pronósticos meteorológicos de más de 4000 aeropuertos (mensajes METAR y TAF).

Los puntos amarillos y rojos representan las estaciones disponibles.

Ponga el ratón en el punto deseado para ver el nombre de la estación.

Haga clic para ver las observaciones y los pronósticos meteorológicos.

Para cambiar el mapa : haga clic en los botones verdes con una cruz de color negro para hacer un zoom, en el botón verde con un guión para alejar o en las flechas verdes para mapas adyacentes.


METAR-TAF: